Flight Track Log - Related Links

Times and Time Zones

All times are in EDT time to prevent confusion due to time zone crossing. See the NKS434 flight status page for this flight to view local times or setup timezone preferences in your user account.

Time Position Orientation Groundspeed Altitude Reporting Facility
EDT Latitude Longitude Course Direction KTS MPH feet Rate Location/Type
Fri 05:12:00 AM 25.7251 -80.6238 52° Northeast  Level FlightAware Approximate
Fri 05:13:00 AM 25.7901 -80.5308 52° Northeast  Level FlightAware Approximate
Fri 05:14:00 AM 25.8535 -80.4365 53° Northeast  Level FlightAware Approximate
Fri 05:15:00 AM 25.9221 -80.3558 61° Northeast  Level FlightAware Approximate
Fri 05:15:28 AM 23.2630 -81.4490 50° Northeast 432 497 34,000  Level FlightAware ADS-B
Fri 05:16:00 AM 25.9839 -80.2603 50° Northeast  Level FlightAware Approximate
Fri 05:16:04 AM 23.3330 -81.4270 16° North 433 498 34,000  Level FlightAware ADS-B
Fri 05:16:49 AM 23.4190 -81.4000 16° North 432 497 34,000  Level FlightAware ADS-B
Fri 05:17:29 AM 23.4960 -81.3760 16° North 432 497 34,000  Level FlightAware ADS-B
Fri 05:18:04 AM 23.5640 -81.3540 17° North 422 486 34,000  Level FlightAware ADS-B
Fri 05:18:49 AM 23.6490 -81.3280 16° North 423 487 34,000  Level FlightAware ADS-B
Fri 05:19:29 AM 23.7250 -81.3040 16° North 422 486 34,000  Level FlightAware ADS-B
Fri 05:20:14 AM 23.8110 -81.2770 16° North 423 487 34,000  Level FlightAware ADS-B
Fri 05:20:57 AM 23.8940 -81.2500 17° North 421 484 34,000  Level FlightAware ADS-B
Fri 05:21:32 AM 23.9620 -81.2270 17° North 429 494 34,000  Level FlightAware ADS-B
Fri 05:22:22 AM 24.0540 -81.1900 20° North 428 493 34,000  Level FlightAware ADS-B
Fri 05:22:52 AM 24.1100 -81.1680 20° North 427 491 34,000  Level FlightAware ADS-B
Fri 05:23:39 AM 24.1940 -81.1350 20° North 428 493 34,000 -494 Level FlightAware ADS-B
Fri 05:24:17 AM 24.2690 -81.1050 20° North 427 491 33,300 -1,397 Descending FlightAware ADS-B
Fri 05:24:52 AM 24.3330 -81.0800 20° North 431 496 32,300 -1,920 Descending FlightAware ADS-B
Fri 05:25:32 AM 24.4100 -81.0500 20° North 425 489 30,900 -2,118 Descending FlightAware ADS-B
Fri 05:26:17 AM 24.4910 -81.0180 20° North 412 474 29,300 -2,100 Descending FlightAware ADS-B
Fri 05:26:52 AM 24.5540 -80.9930 20° North 408 470 28,100 -2,080 Descending FlightAware ADS-B
Fri 05:27:32 AM 24.6260 -80.9640 20° North 412 474 26,700 -2,025 Descending FlightAware ADS-B
Fri 05:28:12 AM 24.6970 -80.9360 20° North 407 468 25,400 -2,047 Descending FlightAware ADS-B
Fri 05:28:57 AM 24.7770 -80.9040 20° North 395 455 23,800 -2,047 Descending FlightAware ADS-B
Fri 05:29:37 AM 24.8490 -80.8760 19° North 392 451 22,500 -1,976 Descending FlightAware ADS-B
Fri 05:30:22 AM 24.9270 -80.8450 20° North 397 457 21,000 -2,080 Descending FlightAware ADS-B
Fri 05:30:52 AM 24.9790 -80.8240 20° North 394 453 19,900 -2,031 Descending FlightAware ADS-B
Fri 05:31:27 AM 25.0370 -80.8010 20° North 392 451 18,800 -2,000 Descending FlightAware ADS-B
Fri 05:32:07 AM 25.1050 -80.7740 20° North 390 449 17,400 -2,047 Descending FlightAware ADS-B
Fri 05:32:52 AM 25.1830 -80.7420 20° North 377 434 15,900 -1,950 Descending FlightAware ADS-B
Fri 05:33:27 AM 25.2400 -80.7200 19° North 380 437 14,800 -1,520 Descending FlightAware ADS-B
Fri 05:34:07 AM 25.3040 -80.6940 20° North 345 397 14,000 -987 Descending FlightAware ADS-B
Fri 05:34:46 AM 25.3620 -80.6710 20° North 324 373 13,500 -1,063 Descending FlightAware ADS-B
Fri 05:35:26 AM 25.4140 -80.6500 20° North 309 356 12,600 -1,636 Descending FlightAware ADS-B
Fri 05:36:14 AM 25.4830 -80.6220 20° North 313 360 11,100 -1,517 Descending FlightAware ADS-B
Fri 05:36:53 AM 25.5400 -80.6080 12° North 312 359 10,400 -900 Descending FlightAware ADS-B
Fri 05:37:34 AM 25.5970 -80.5990 North 295 339 9,900 -500 Descending FlightAware ADS-B
Fri 05:37:53 AM 25.6230 -80.5950 North 296 341 9,900  Level FlightAware ADS-B
Fri 05:38:19 AM 25.6580 -80.5890 North 308 354 9,900 -429 Level FlightAware ADS-B
Fri 05:38:49 AM 25.7000 -80.5820 North 296 341 9,500 -915 Descending FlightAware ADS-B
Fri 05:39:18 AM 25.7430 -80.5750 North 292 336 9,000 -1,200 Descending FlightAware ADS-B
Fri 05:39:44 AM 25.7780 -80.5700 North 291 335 8,400 -1,500 Descending FlightAware ADS-B
Fri 05:40:14 AM 25.8200 -80.5630 North 291 335 7,600 -1,474 Descending FlightAware ADS-B
Fri 05:40:41 AM 25.8550 -80.5580 North 292 336 7,000 -1,294 Descending FlightAware ADS-B
Fri 05:41:05 AM 25.8880 -80.5530 North 292 336 6,500 -1,500 Descending FlightAware ADS-B
Fri 05:41:29 AM 25.9230 -80.5470 North 295 339 5,800 -1,500 Descending FlightAware ADS-B
Fri 05:41:45 AM 25.9430 -80.5440 North 293 337 5,500 -1,174 Descending FlightAware ADS-B
Fri 05:42:15 AM 25.9830 -80.5380 North 276 318 4,900 -1,322 Descending FlightAware ADS-B
Fri 05:42:44 AM 26.0220 -80.5310 North 274 315 4,200 -1,333 Descending FlightAware ADS-B
Fri 05:43:00 AM 26.0390 -80.5240 20° North 266 306 3,900 -581 Descending FlightAware ADS-B
Fri 05:43:15 AM 26.0520 -80.5100 44° Northeast 245 282 3,900  Level FlightAware ADS-B
Fri 05:43:35 AM 26.0670 -80.4920 47° Northeast 226 260 3,900  Level FlightAware ADS-B
Fri 05:43:54 AM 26.0760 -80.4730 62° Northeast 198 228 3,900  Level FlightAware ADS-B
Fri 05:44:04 AM 26.0770 -80.4640 83° East 186 214 3,900  Level FlightAware ADS-B
Fri 05:44:54 AM 26.0780 -80.4180 89° East 179 206 3,900 -240 Level FlightAware ADS-B
Fri 05:45:19 AM 26.0780 -80.3950 90° East 179 206 3,600 -783 Descending FlightAware ADS-B
Fri 05:45:40 AM 26.0780 -80.3760 90° East 178 205 3,300 -885 Descending FlightAware ADS-B
Fri 05:46:20 AM 26.0780 -80.3390 90° East 178 205 2,700 -882 Descending FlightAware ADS-B
Fri 05:46:48 AM 26.0780 -80.3150 90° East 178 205 2,300 -870 Descending FlightAware ADS-B
Fri 05:47:29 AM 26.0780 -80.2770 90° East 167 192 1,700 -882 Descending FlightAware ADS-B
Fri 05:47:56 AM 26.0780 -80.2550 90° East 150 173 1,300 -692 Descending FlightAware ADS-B
Fri 05:48:21 AM 26.0770 -80.2370 94° East 135 155 1,100 -486 Descending FlightAware ADS-B
Fri 05:48:33 AM 26.0770 -80.2290 90° East 133 153 1,000 -667 Descending FlightAware ADS-B
Fri 05:49:06 AM 26.0770 -80.2060 90° East 131 151 600 -766 Descending FlightAware ADS-B
Fri 05:49:20 AM 26.0770 -80.1970 90° East 131 151 400 -714 Descending FlightAware ADS-B
Fri 05:49:48 AM 26.0770 -80.1780 90° East 131 151 100 -643 Descending FlightAware ADS-B
Fri 05:50:16 AM 26.0770 -80.1620 90° East 133 153 -214 Descending FlightAware ADS-B
Fri 05:56:00 AM 26.0667 -80.1500 90° East  Level FlightAware Approximate
Fri 05:57:00 AM 26.0726 -80.1527 90° East  Level Estimated
Fri 05:58:00 AM 26.0667 -80.1500 90° East  Level FlightAware Approximate

Login

Don't have an account? Register now (free) for customized features, flight alerts, and more!